createdAt,value
2023-08-20T00:02:02.882Z,2.28
2023-08-20T00:04:33.381Z,2.15
2023-08-20T00:07:01.062Z,2.25
2023-08-20T00:09:28.623Z,2.35
2023-08-20T00:11:56.251Z,2.38
2023-08-20T00:15:06.796Z,2.20
2023-08-20T00:17:37.781Z,2.30
2023-08-20T00:20:13.927Z,2.30
2023-08-20T00:22:46.849Z,2.30
2023-08-20T00:25:15.488Z,2.28
2023-08-20T00:27:43.873Z,2.58
2023-08-20T00:30:11.939Z,2.42
2023-08-20T00:32:40.064Z,2.47
2023-08-20T00:35:09.286Z,2.30
2023-08-20T00:37:37.183Z,2.20
2023-08-20T00:40:08.539Z,2.45
2023-08-20T00:42:35.926Z,2.13
2023-08-20T00:45:04.836Z,2.38
2023-08-20T00:47:33.374Z,2.50
2023-08-20T00:50:01.193Z,2.28
2023-08-20T00:52:28.759Z,2.08
2023-08-20T00:54:56.322Z,2.60
2023-08-20T00:57:24.287Z,2.65
2023-08-20T00:59:52.153Z,2.50
2023-08-20T01:02:19.718Z,2.58
2023-08-20T01:04:49.486Z,2.17
2023-08-20T01:07:27.256Z,2.63
2023-08-20T01:10:10.189Z,2.70
2023-08-20T01:12:39.218Z,2.50
2023-08-20T01:15:07.342Z,2.58
2023-08-20T01:17:35.104Z,2.42
2023-08-20T01:20:04.812Z,2.20
2023-08-20T01:23:16.642Z,2.40
2023-08-20T01:25:51.750Z,2.40
2023-08-20T01:28:38.380Z,2.42
2023-08-20T01:31:07.267Z,2.28
2023-08-20T01:33:35.288Z,2.47
2023-08-20T01:36:03.014Z,2.65
2023-08-20T01:38:30.664Z,2.28
2023-08-20T01:40:58.181Z,2.22
2023-08-20T01:43:25.624Z,2.50
2023-08-20T01:45:53.229Z,2.35
2023-08-20T01:48:20.625Z,2.63
2023-08-20T01:50:48.191Z,2.28
2023-08-20T01:53:15.831Z,2.42
2023-08-20T01:55:43.352Z,2.45
2023-08-20T01:58:10.880Z,2.75
2023-08-20T02:00:38.396Z,2.80
2023-08-20T02:03:05.936Z,2.78
2023-08-20T02:05:34.332Z,2.97
2023-08-20T02:08:01.670Z,2.75
2023-08-20T02:10:29.160Z,2.30
2023-08-20T02:12:56.652Z,2.30
2023-08-20T02:15:24.173Z,2.38
2023-08-20T02:17:51.749Z,2.30
2023-08-20T02:20:19.645Z,2.67
2023-08-20T02:22:47.730Z,2.70
2023-08-20T02:25:15.298Z,2.85
2023-08-20T02:27:42.820Z,2.50
2023-08-20T02:30:10.836Z,2.67
2023-08-20T02:32:38.240Z,2.65
2023-08-20T02:35:06.819Z,2.78
2023-08-20T02:37:34.645Z,2.50
2023-08-20T02:40:02.643Z,2.75
2023-08-20T02:42:30.176Z,2.92
2023-08-20T02:44:57.546Z,3.08
2023-08-20T02:47:25.060Z,2.67
2023-08-20T02:49:52.557Z,2.72
2023-08-20T02:52:19.931Z,2.55
2023-08-20T02:54:47.505Z,2.78
2023-08-20T02:57:14.912Z,2.38
2023-08-20T02:59:42.331Z,2.70
2023-08-20T03:02:09.747Z,2.50
2023-08-20T03:04:37.286Z,2.53
2023-08-20T03:07:04.794Z,2.83
2023-08-20T03:09:34.989Z,2.53
2023-08-20T03:12:02.753Z,2.75
2023-08-20T03:14:31.504Z,2.83
2023-08-20T03:16:58.854Z,2.60
2023-08-20T03:19:26.765Z,2.78
2023-08-20T03:21:54.310Z,2.78
2023-08-20T03:24:21.770Z,2.92
2023-08-20T03:26:49.234Z,2.67
2023-08-20T03:29:16.601Z,2.70
2023-08-20T03:31:44.455Z,2.28
2023-08-20T03:34:11.913Z,2.28
2023-08-20T03:36:39.473Z,2.80
2023-08-20T03:39:06.883Z,2.35
2023-08-20T03:41:34.355Z,2.60
2023-08-20T03:44:01.772Z,2.63
2023-08-20T03:46:29.173Z,2.55
2023-08-20T03:48:56.712Z,2.83
2023-08-20T03:51:24.113Z,2.80
2023-08-20T03:53:51.579Z,2.28
2023-08-20T03:56:19.426Z,2.38
2023-08-20T03:58:47.085Z,2.65
2023-08-20T04:01:14.518Z,2.55
2023-08-20T04:03:42.146Z,2.38
2023-08-20T04:06:09.566Z,2.30
2023-08-20T04:08:37.088Z,2.55
2023-08-20T04:11:04.889Z,2.17
2023-08-20T04:13:32.525Z,2.17
2023-08-20T04:15:59.967Z,2.28
2023-08-20T04:18:27.982Z,2.80
2023-08-20T04:20:56.632Z,2.15
2023-08-20T04:23:24.395Z,2.58
2023-08-20T04:25:51.860Z,2.50
2023-08-20T04:28:19.425Z,2.17
2023-08-20T04:30:48.344Z,2.30
2023-08-20T04:33:15.863Z,2.70
2023-08-20T04:35:43.615Z,2.15
2023-08-20T04:38:11.060Z,2.30
2023-08-20T04:40:38.657Z,2.40
2023-08-20T04:43:06.431Z,2.45
2023-08-20T04:45:33.948Z,2.10
2023-08-20T04:48:01.782Z,2.47
2023-08-20T04:50:29.211Z,2.38
2023-08-20T04:53:00.326Z,2.47
2023-08-20T04:55:28.898Z,2.22
2023-08-20T04:57:56.555Z,2.40
2023-08-20T05:00:24.240Z,2.15
2023-08-20T05:02:51.797Z,2.50
2023-08-20T05:05:19.387Z,2.47
2023-08-20T05:07:47.089Z,2.40
2023-08-20T05:10:14.466Z,2.28
2023-08-20T05:12:41.898Z,2.40
2023-08-20T05:15:09.500Z,2.00
2023-08-20T05:17:36.916Z,2.03
2023-08-20T05:20:04.988Z,2.47
2023-08-20T05:22:32.572Z,2.10
2023-08-20T05:25:00.409Z,2.50
2023-08-20T05:27:28.231Z,2.25
2023-08-20T05:29:55.738Z,2.10
2023-08-20T05:32:23.446Z,2.05
2023-08-20T05:34:50.964Z,2.45
2023-08-20T05:37:18.830Z,2.17
2023-08-20T05:39:46.382Z,1.90
2023-08-20T05:42:14.021Z,2.17
2023-08-20T05:44:41.450Z,2.22
2023-08-20T05:47:08.883Z,2.40
2023-08-20T05:49:37.231Z,2.33
2023-08-20T05:52:05.205Z,2.10
2023-08-20T05:54:32.723Z,2.55
2023-08-20T05:57:00.374Z,2.25
2023-08-20T05:59:27.972Z,2.70
2023-08-20T06:01:56.056Z,1.95
2023-08-20T06:04:23.566Z,2.35
2023-08-20T06:06:51.052Z,2.05
2023-08-20T06:09:19.095Z,2.63
2023-08-20T06:11:46.687Z,2.10
2023-08-20T06:14:14.417Z,2.58
2023-08-20T06:16:41.906Z,2.40
2023-08-20T06:19:09.941Z,2.20
2023-08-20T06:21:37.285Z,2.50
2023-08-20T06:24:04.974Z,2.33
2023-08-20T06:26:32.525Z,2.22
2023-08-20T06:29:00.530Z,2.05
2023-08-20T06:31:28.140Z,2.22
2023-08-20T06:33:55.688Z,2.35
2023-08-20T06:36:23.267Z,2.30
2023-08-20T06:38:51.844Z,2.13
2023-08-20T06:41:19.576Z,2.40
2023-08-20T06:43:46.936Z,2.13
2023-08-20T06:46:14.401Z,2.42
2023-08-20T06:48:42.083Z,2.20
2023-08-20T06:51:15.180Z,2.50
2023-08-20T06:53:43.131Z,2.15
2023-08-20T06:56:10.788Z,2.40
2023-08-20T06:58:40.339Z,2.40
2023-08-20T07:01:11.018Z,2.38
2023-08-20T07:03:39.681Z,2.28
2023-08-20T07:06:08.384Z,2.40
2023-08-20T07:08:35.967Z,2.03
2023-08-20T07:11:03.746Z,2.40
2023-08-20T07:13:31.136Z,1.98
2023-08-20T07:15:58.491Z,2.47
2023-08-20T07:18:26.238Z,2.40
2023-08-20T07:20:53.732Z,2.30
2023-08-20T07:23:21.649Z,2.33
2023-08-20T07:25:49.801Z,2.70
2023-08-20T07:28:22.052Z,2.30
2023-08-20T07:30:49.471Z,2.60
2023-08-20T07:33:16.816Z,2.53
2023-08-20T07:35:44.266Z,2.45
2023-08-20T07:38:11.768Z,2.30
2023-08-20T07:40:39.160Z,2.53
2023-08-20T07:43:06.528Z,2.58
2023-08-20T07:45:33.925Z,2.25
2023-08-20T07:48:01.465Z,2.72
2023-08-20T07:50:28.922Z,2.38
2023-08-20T07:52:56.311Z,2.63
2023-08-20T07:55:23.672Z,2.80
2023-08-20T07:57:52.540Z,2.45
2023-08-20T08:00:19.914Z,2.53
2023-08-20T08:02:47.670Z,2.30
2023-08-20T08:05:15.567Z,2.58
2023-08-20T08:07:43.108Z,2.47
2023-08-20T08:10:10.919Z,2.47
2023-08-20T08:12:38.324Z,2.53
2023-08-20T08:15:06.177Z,2.70
2023-08-20T08:17:34.036Z,2.30
2023-08-20T08:20:01.818Z,2.88
2023-08-20T08:22:29.325Z,2.42
2023-08-20T08:24:56.890Z,2.47
2023-08-20T08:27:24.672Z,2.50
2023-08-20T08:29:52.267Z,2.33
2023-08-20T08:32:19.598Z,2.45
2023-08-20T08:34:47.149Z,2.20
2023-08-20T08:37:14.532Z,2.50
2023-08-20T08:39:41.993Z,2.33
2023-08-20T08:42:13.216Z,2.40
2023-08-20T08:44:42.262Z,2.60
2023-08-20T08:47:10.127Z,2.70
2023-08-20T08:49:37.599Z,2.70
2023-08-20T08:52:06.311Z,2.35
2023-08-20T08:54:37.173Z,2.80
2023-08-20T08:57:05.132Z,2.50
2023-08-20T08:59:33.463Z,2.40
2023-08-20T09:02:00.895Z,2.40
2023-08-20T09:04:28.373Z,2.65
2023-08-20T09:06:58.903Z,2.78
2023-08-20T09:09:32.323Z,2.28
2023-08-20T09:11:59.729Z,2.55
2023-08-20T09:14:31.145Z,2.22
2023-08-20T09:17:03.176Z,2.60
2023-08-20T09:19:36.133Z,2.40
2023-08-20T09:22:04.486Z,2.63
2023-08-20T09:24:56.202Z,2.40
2023-08-20T09:27:24.791Z,2.35
2023-08-20T09:29:57.152Z,2.60
2023-08-20T09:32:26.956Z,2.55
2023-08-20T09:34:56.368Z,2.40
2023-08-20T09:37:25.142Z,2.50
2023-08-20T09:39:52.762Z,2.60
2023-08-20T09:42:20.761Z,2.40
2023-08-20T09:44:52.068Z,2.30
2023-08-20T09:47:22.380Z,2.38
2023-08-20T09:49:50.085Z,2.47
2023-08-20T09:52:25.860Z,2.53
2023-08-20T09:55:09.636Z,2.40
2023-08-20T09:57:39.336Z,2.30
2023-08-20T10:00:11.193Z,2.42
2023-08-20T10:02:39.747Z,2.42
2023-08-20T10:05:08.835Z,2.28
2023-08-20T10:07:37.510Z,2.30
2023-08-20T10:10:11.432Z,2.60
2023-08-20T10:12:40.408Z,2.17
2023-08-20T10:15:13.041Z,2.28
2023-08-20T10:17:43.177Z,2.40
2023-08-20T10:20:14.243Z,2.00
2023-08-20T10:22:43.604Z,2.08
2023-08-20T10:25:13.138Z,2.20
2023-08-20T10:27:44.057Z,2.03
2023-08-20T10:30:17.332Z,2.25
2023-08-20T10:32:50.211Z,1.83
2023-08-20T10:35:48.489Z,1.92
2023-08-20T10:38:19.639Z,2.05
2023-08-20T10:41:00.074Z,2.03
2023-08-20T10:43:31.487Z,1.73
2023-08-20T10:46:08.080Z,2.00
2023-08-20T10:48:39.624Z,2.05
2023-08-20T10:51:14.441Z,2.10
2023-08-20T10:53:43.577Z,1.77
2023-08-20T10:56:14.156Z,1.80
2023-08-20T10:58:47.128Z,1.88
2023-08-20T11:01:22.296Z,2.17
2023-08-20T11:03:51.481Z,2.20
2023-08-20T11:06:19.896Z,2.20
2023-08-20T11:08:47.533Z,2.00
2023-08-20T11:11:15.480Z,1.80
2023-08-20T11:13:44.174Z,1.98
2023-08-20T11:16:12.164Z,2.20
2023-08-20T11:18:39.664Z,1.65
2023-08-20T11:21:08.563Z,2.05
2023-08-20T11:23:37.282Z,1.90
2023-08-20T11:26:04.771Z,1.70
2023-08-20T11:28:32.588Z,1.90
2023-08-20T11:31:02.038Z,2.00
2023-08-20T11:33:30.408Z,1.90
2023-08-20T11:35:59.328Z,2.15
2023-08-20T11:38:28.179Z,1.65
2023-08-20T11:40:55.604Z,2.00
2023-08-20T11:43:23.544Z,1.73
2023-08-20T11:45:51.249Z,1.88
2023-08-20T11:48:19.169Z,1.90
2023-08-20T11:50:46.739Z,1.73
2023-08-20T11:53:14.617Z,1.50
2023-08-20T11:55:45.105Z,1.50
2023-08-20T11:58:16.028Z,1.52
2023-08-20T12:00:43.636Z,1.65
2023-08-20T12:03:12.031Z,1.73
2023-08-20T12:05:43.889Z,1.60
2023-08-20T12:08:20.708Z,1.80
2023-08-20T12:10:48.339Z,1.80
2023-08-20T12:13:15.877Z,2.10
2023-08-20T12:15:43.588Z,1.55
2023-08-20T12:18:11.620Z,1.90
2023-08-20T12:20:39.271Z,1.98
2023-08-20T12:23:08.279Z,1.63
2023-08-20T12:25:38.419Z,1.50
2023-08-20T12:28:07.001Z,1.55
2023-08-20T12:30:39.688Z,1.70
2023-08-20T12:33:07.658Z,1.67
2023-08-20T12:35:35.874Z,1.50
2023-08-20T12:38:03.432Z,1.67
2023-08-20T12:40:31.966Z,1.60
2023-08-20T12:42:59.337Z,1.48
2023-08-20T12:45:27.017Z,1.80
2023-08-20T12:47:55.282Z,1.67
2023-08-20T12:50:22.748Z,1.88
2023-08-20T12:52:52.168Z,1.77
2023-08-20T12:55:19.813Z,1.67
2023-08-20T12:57:56.195Z,1.60
2023-08-20T13:00:26.602Z,1.92
2023-08-20T13:02:56.204Z,1.90
2023-08-20T13:05:25.603Z,1.70
2023-08-20T13:07:54.116Z,1.60
2023-08-20T13:10:22.365Z,1.90
2023-08-20T13:12:55.434Z,1.98
2023-08-20T13:15:24.984Z,1.95
2023-08-20T13:17:52.916Z,2.08
2023-08-20T13:20:25.112Z,2.20
2023-08-20T13:22:53.322Z,1.70
2023-08-20T13:25:22.784Z,2.05
2023-08-20T13:27:50.895Z,1.95
2023-08-20T13:30:19.208Z,1.92
2023-08-20T13:32:46.775Z,2.13
2023-08-20T13:35:15.776Z,2.20
2023-08-20T13:37:44.046Z,2.05
2023-08-20T13:40:12.040Z,2.03
2023-08-20T13:42:39.817Z,2.00
2023-08-20T13:45:08.151Z,1.88
2023-08-20T13:47:35.663Z,1.92
2023-08-20T13:50:05.931Z,2.03
2023-08-20T13:52:33.491Z,2.10
2023-08-20T13:55:01.009Z,1.80
2023-08-20T13:57:28.527Z,2.25
2023-08-20T13:59:56.000Z,2.00
2023-08-20T14:02:23.523Z,1.90
2023-08-20T14:04:50.973Z,2.03
2023-08-20T14:07:19.527Z,1.92
2023-08-20T14:09:47.035Z,1.80
2023-08-20T14:12:14.557Z,1.80
2023-08-20T14:14:42.004Z,1.70
2023-08-20T14:17:10.288Z,1.58
2023-08-20T14:19:37.814Z,2.03
2023-08-20T14:22:05.212Z,2.13
2023-08-20T14:24:32.899Z,1.90
2023-08-20T14:27:00.326Z,1.83
2023-08-20T14:29:27.730Z,1.90
2023-08-20T14:31:55.348Z,1.85
2023-08-20T14:34:22.758Z,1.88
2023-08-20T14:36:50.124Z,2.10
2023-08-20T14:39:18.142Z,1.80
2023-08-20T14:41:45.575Z,1.70
2023-08-20T14:44:12.958Z,1.50
2023-08-20T14:46:40.787Z,1.50
2023-08-20T14:49:08.241Z,1.48
2023-08-20T14:51:36.460Z,1.50
2023-08-20T14:54:04.947Z,1.33
2023-08-20T14:56:32.514Z,1.40
2023-08-20T14:59:00.991Z,1.70
2023-08-20T15:01:28.437Z,1.50
2023-08-20T15:03:55.956Z,1.40
2023-08-20T15:06:25.274Z,1.23
2023-08-20T15:08:52.778Z,1.20
2023-08-20T15:11:20.337Z,1.35
2023-08-20T15:13:47.756Z,1.50
2023-08-20T15:16:15.308Z,1.38
2023-08-20T15:18:43.080Z,1.40
2023-08-20T15:21:12.838Z,1.30
2023-08-20T15:23:40.416Z,1.30
2023-08-20T15:26:08.744Z,1.20
2023-08-20T15:28:36.232Z,1.30
2023-08-20T15:31:03.804Z,1.33
2023-08-20T15:33:31.608Z,1.33
2023-08-20T15:36:03.446Z,1.40
2023-08-20T15:38:30.939Z,1.27
2023-08-20T15:41:00.348Z,1.20
2023-08-20T15:43:27.817Z,1.40
2023-08-20T15:45:55.461Z,1.40
2023-08-20T15:48:23.221Z,1.40
2023-08-20T15:50:50.922Z,1.50
2023-08-20T15:53:18.977Z,1.33
2023-08-20T15:55:46.582Z,1.58
2023-08-20T15:58:14.202Z,1.50
2023-08-20T16:00:41.943Z,1.30
2023-08-20T16:03:10.216Z,1.50
2023-08-20T16:05:39.012Z,1.50
2023-08-20T16:08:06.654Z,1.50
2023-08-20T16:10:34.052Z,1.15
2023-08-20T16:13:01.391Z,1.60
2023-08-20T16:15:28.779Z,1.50
2023-08-20T16:17:56.967Z,1.45
2023-08-20T16:20:24.997Z,1.40
2023-08-20T16:22:52.497Z,1.70
2023-08-20T16:25:19.953Z,1.50
2023-08-20T16:27:47.470Z,1.58
2023-08-20T16:30:14.922Z,1.45
2023-08-20T16:32:42.437Z,1.58
2023-08-20T16:35:10.146Z,1.50
2023-08-20T16:37:38.305Z,1.50
2023-08-20T16:40:09.154Z,1.58
2023-08-20T16:42:36.769Z,1.17
2023-08-20T16:45:04.546Z,1.30
2023-08-20T16:47:32.011Z,1.45
2023-08-20T16:49:59.530Z,1.60
2023-08-20T16:52:27.090Z,1.38
2023-08-20T16:54:55.894Z,1.50
2023-08-20T16:57:24.100Z,1.60
2023-08-20T16:59:51.679Z,1.23
2023-08-20T17:02:20.715Z,1.30
2023-08-20T17:04:48.100Z,1.45
2023-08-20T17:07:15.556Z,1.40
2023-08-20T17:09:43.320Z,1.35
2023-08-20T17:12:11.290Z,1.65
2023-08-20T17:14:39.595Z,1.42
2023-08-20T17:17:07.713Z,1.50
2023-08-20T17:19:35.226Z,1.67
2023-08-20T17:22:02.659Z,1.58
2023-08-20T17:24:30.128Z,1.55
2023-08-20T17:26:57.642Z,1.60
2023-08-20T17:29:25.094Z,1.65
2023-08-20T17:31:53.009Z,1.67
2023-08-20T17:34:20.745Z,1.73
2023-08-20T17:36:48.225Z,1.60
2023-08-20T17:39:16.704Z,1.25
2023-08-20T17:41:44.198Z,1.70
2023-08-20T17:44:11.676Z,1.92
2023-08-20T17:46:49.759Z,1.90
2023-08-20T17:49:20.919Z,1.60
2023-08-20T17:51:49.193Z,1.65
2023-08-20T17:54:17.721Z,1.75
2023-08-20T17:56:45.508Z,1.60
2023-08-20T17:59:12.854Z,1.80
2023-08-20T18:01:40.252Z,1.50
2023-08-20T18:04:07.759Z,1.83
2023-08-20T18:06:35.152Z,1.75
2023-08-20T18:09:02.509Z,1.85
2023-08-20T18:11:29.952Z,2.17
2023-08-20T18:13:58.460Z,1.80
2023-08-20T18:16:25.864Z,1.63
2023-08-20T18:18:53.588Z,1.80
2023-08-20T18:21:21.110Z,1.67
2023-08-20T18:23:48.842Z,1.70
2023-08-20T18:26:16.259Z,1.80
2023-08-20T18:28:43.735Z,1.92
2023-08-20T18:31:11.241Z,1.90
2023-08-20T18:33:38.823Z,1.83
2023-08-20T18:36:06.594Z,1.88
2023-08-20T18:38:33.995Z,1.90
2023-08-20T18:41:04.238Z,1.77
2023-08-20T18:43:31.943Z,1.92
2023-08-20T18:45:59.696Z,1.83
2023-08-20T18:48:27.939Z,2.00
2023-08-20T18:50:55.271Z,2.38
2023-08-20T18:53:22.662Z,2.17
2023-08-20T18:55:51.111Z,2.40
2023-08-20T18:58:18.625Z,2.00
2023-08-20T19:00:45.990Z,2.30
2023-08-20T19:03:16.818Z,2.30
2023-08-20T19:05:46.122Z,2.00
2023-08-20T19:08:14.826Z,2.03
2023-08-20T19:10:42.571Z,2.20
2023-08-20T19:13:10.075Z,2.47
2023-08-20T19:15:48.079Z,2.55
2023-08-20T19:18:16.738Z,2.40
2023-08-20T19:21:02.572Z,2.70
2023-08-20T19:23:30.022Z,2.70
2023-08-20T19:25:57.388Z,2.70
2023-08-20T19:28:25.313Z,2.80
2023-08-20T19:30:56.699Z,2.70
2023-08-20T19:33:24.189Z,2.58
2023-08-20T19:35:51.619Z,2.60
2023-08-20T19:38:19.188Z,2.70
2023-08-20T19:40:48.402Z,2.55
2023-08-20T19:43:16.310Z,2.33
2023-08-20T19:45:43.753Z,2.50
2023-08-20T19:48:12.882Z,2.42
2023-08-20T19:50:41.046Z,2.55
2023-08-20T19:53:08.873Z,2.70
2023-08-20T19:55:36.296Z,2.88
2023-08-20T19:58:06.006Z,2.50
2023-08-20T20:00:33.682Z,2.53
2023-08-20T20:03:01.496Z,2.90
2023-08-20T20:05:30.936Z,2.90
2023-08-20T20:08:02.247Z,3.10
2023-08-20T20:10:29.689Z,3.05
2023-08-20T20:12:57.031Z,3.58
2023-08-20T20:15:24.595Z,3.20
2023-08-20T20:17:52.064Z,3.33
2023-08-20T20:20:23.105Z,3.10
2023-08-20T20:22:51.080Z,3.30
2023-08-20T20:25:18.481Z,3.28
2023-08-20T20:27:47.333Z,3.03
2023-08-20T20:30:14.799Z,3.20
2023-08-20T20:32:42.700Z,2.97
2023-08-20T20:35:10.497Z,3.25
2023-08-20T20:37:37.862Z,2.95
2023-08-20T20:40:10.408Z,3.17
2023-08-20T20:42:38.671Z,3.45
2023-08-20T20:45:07.426Z,3.38
2023-08-20T20:47:35.184Z,3.30
2023-08-20T20:50:03.034Z,3.33
2023-08-20T20:52:30.576Z,3.33
2023-08-20T20:54:58.056Z,2.97
2023-08-20T20:57:25.489Z,3.30
2023-08-20T20:59:53.276Z,3.40
2023-08-20T21:02:20.935Z,3.25
2023-08-20T21:04:48.452Z,3.40
2023-08-20T21:07:15.928Z,3.28
2023-08-20T21:09:43.509Z,3.53
2023-08-20T21:12:11.421Z,3.05
2023-08-20T21:14:38.875Z,3.40
2023-08-20T21:17:06.341Z,3.22
2023-08-20T21:19:33.868Z,3.95
2023-08-20T21:22:11.621Z,3.42
2023-08-20T21:24:39.717Z,3.38
2023-08-20T21:27:08.538Z,3.15
2023-08-20T21:29:36.419Z,3.50
2023-08-20T21:32:04.355Z,3.30
2023-08-20T21:34:32.093Z,3.50
2023-08-20T21:37:00.498Z,3.67
2023-08-20T21:39:28.033Z,3.17
2023-08-20T21:41:55.834Z,3.35
2023-08-20T21:44:23.521Z,3.50
2023-08-20T21:46:55.582Z,3.83
2023-08-20T21:49:24.979Z,3.28
2023-08-20T21:51:52.490Z,3.55
2023-08-20T21:54:20.743Z,3.10
2023-08-20T21:56:53.287Z,3.40
2023-08-20T21:59:21.073Z,3.05
2023-08-20T22:01:48.620Z,3.22
2023-08-20T22:04:16.329Z,3.28
2023-08-20T22:06:43.696Z,3.00
2023-08-20T22:09:12.041Z,3.25
2023-08-20T22:11:39.591Z,3.10
2023-08-20T22:14:07.096Z,3.17
2023-08-20T22:16:34.480Z,3.20
2023-08-20T22:19:01.852Z,3.08
2023-08-20T22:21:29.317Z,3.00
2023-08-20T22:23:57.004Z,3.10
2023-08-20T22:26:24.314Z,3.05
2023-08-20T22:28:51.802Z,3.10
2023-08-20T22:31:19.435Z,3.22
2023-08-20T22:33:46.994Z,3.40
2023-08-20T22:36:14.436Z,3.35
2023-08-20T22:38:41.832Z,3.33
2023-08-20T22:41:09.333Z,3.13
2023-08-20T22:43:36.849Z,3.00
2023-08-20T22:46:04.246Z,3.40
2023-08-20T22:48:31.754Z,3.42
2023-08-20T22:50:59.392Z,3.20
2023-08-20T22:53:26.954Z,3.22
2023-08-20T22:55:54.417Z,2.88
2023-08-20T22:58:22.040Z,3.13
2023-08-20T23:00:50.354Z,3.00
2023-08-20T23:03:17.767Z,2.95
2023-08-20T23:05:45.148Z,3.20
2023-08-20T23:08:13.235Z,2.95
2023-08-20T23:10:40.728Z,2.95
2023-08-20T23:13:08.154Z,3.30
2023-08-20T23:15:35.684Z,3.05
2023-08-20T23:18:03.712Z,2.97
2023-08-20T23:20:31.162Z,3.20
2023-08-20T23:22:59.508Z,3.10
2023-08-20T23:25:26.917Z,3.10
2023-08-20T23:27:54.245Z,3.00
2023-08-20T23:30:21.828Z,3.00
2023-08-20T23:32:53.975Z,2.90
2023-08-20T23:35:21.506Z,2.92
2023-08-20T23:37:49.146Z,3.15
2023-08-20T23:40:17.049Z,3.15
2023-08-20T23:42:44.424Z,3.50
2023-08-20T23:45:11.915Z,3.00
2023-08-20T23:47:39.413Z,2.90
2023-08-20T23:50:07.684Z,3.22
2023-08-20T23:52:35.805Z,2.97
2023-08-20T23:55:04.910Z,3.28
2023-08-20T23:57:32.481Z,2.92
2023-08-20T23:59:59.835Z,3.33
